Time;durP1;ratioP1;P1;durP2;ratioP2;P2;SDS_P1;SDS_P2;PMS_P1;PMS_P2;Temp;Humidity;BMP_temperature;BMP_pressure;BME280_temperature;BME280_humidity;BME280_pressure;Samples;Min_cycle;Max_cycle;Signal;HPM_P1;HPM_P2
2024/01/08 00:00:42;;;;;;;7.50;4.70;;;;;;;;;;4995943;28;20469;-82
2024/01/08 00:03:08;;;;;;;7.72;4.45;;;;;;;;;;5013199;28;20981;-82
2024/01/08 00:05:41;;;;;;;7.35;4.22;;;;;;;;;;4975675;28;20440;-84
2024/01/08 00:08:07;;;;;;;9.13;4.65;;;;;;;;;;4996000;28;20403;-83
2024/01/08 00:10:59;;;;;;;9.23;4.78;;;;;;;;;;4937078;28;20437;-83
2024/01/08 00:13:26;;;;;;;8.32;4.70;;;;;;;;;;5004530;28;20430;-83
2024/01/08 00:15:55;;;;;;;8.38;4.63;;;;;;;;;;4999022;28;20782;-83
2024/01/08 00:18:22;;;;;;;7.68;4.32;;;;;;;;;;5016711;28;20773;-83
2024/01/08 00:20:48;;;;;;;7.25;4.50;;;;;;;;;;4999158;28;20410;-83
2024/01/08 00:23:14;;;;;;;9.10;4.53;;;;;;;;;;4999991;28;20402;-83
2024/01/08 00:25:43;;;;;;;8.70;4.40;;;;;;;;;;4983876;28;20438;-83
2024/01/08 00:28:09;;;;;;;7.25;4.32;;;;;;;;;;4980773;28;20422;-83
2024/01/08 00:30:36;;;;;;;7.63;4.53;;;;;;;;;;4998827;28;20442;-83
2024/01/08 00:33:05;;;;;;;7.72;4.60;;;;;;;;;;5034091;28;20418;-83
2024/01/08 00:35:31;;;;;;;8.43;4.78;;;;;;;;;;5000080;28;20435;-83
2024/01/08 00:38:00;;;;;;;7.28;4.57;;;;;;;;;;4996601;28;20399;-83
2024/01/08 00:40:29;;;;;;;8.60;4.25;;;;;;;;;;5000449;28;20403;-83
2024/01/08 00:42:57;;;;;;;8.38;4.20;;;;;;;;;;4998146;28;20431;-83
2024/01/08 00:45:23;;;;;;;9.38;5.10;;;;;;;;;;4998866;28;20403;-83
2024/01/08 00:47:51;;;;;;;10.23;4.65;;;;;;;;;;5016425;28;20745;-83
2024/01/08 00:50:28;;;;;;;8.63;4.65;;;;;;;;;;5016487;28;20725;-84
2024/01/08 00:53:00;;;;;;;9.00;4.90;;;;;;;;;;4982881;28;20493;-83
2024/01/08 00:55:26;;;;;;;9.85;4.40;;;;;;;;;;4983062;28;20430;-83
2024/01/08 00:57:54;;;;;;;8.63;4.68;;;;;;;;;;4983570;28;20407;-83
2024/01/08 01:00:20;;;;;;;6.95;4.80;;;;;;;;;;4996822;28;20430;-83
2024/01/08 01:02:47;;;;;;;7.30;4.53;;;;;;;;;;4983677;28;20755;-83
2024/01/08 01:05:19;;;;;;;9.45;4.63;;;;;;;;;;4987807;28;20403;-83
2024/01/08 01:07:45;;;;;;;9.05;4.72;;;;;;;;;;4982958;28;20740;-83
2024/01/08 01:10:23;;;;;;;7.93;4.87;;;;;;;;;;5014616;28;21254;-83
2024/01/08 01:12:58;;;;;;;7.85;4.97;;;;;;;;;;5000603;28;20768;-83
2024/01/08 01:15:41;;;;;;;13.75;5.15;;;;;;;;;;4981702;28;20427;-83
2024/01/08 01:18:34;;;;;;;9.32;5.13;;;;;;;;;;4991739;28;20403;-83
2024/01/08 01:21:09;;;;;;;9.40;5.03;;;;;;;;;;4998876;28;20399;-83
2024/01/08 01:24:06;;;;;;;15.05;5.93;;;;;;;;;;5013669;28;20449;-83
2024/01/08 01:26:54;;;;;;;9.82;4.82;;;;;;;;;;4962597;28;20410;-83
2024/01/08 01:29:47;;;;;;;;;;;;;;;;;;;;;
2024/01/08 01:32:23;;;;;;;9.07;5.25;;;;;;;;;;4973699;28;20421;-83
2024/01/08 01:34:49;;;;;;;10.23;5.20;;;;;;;;;;4958864;28;20795;-83
2024/01/08 01:37:15;;;;;;;9.60;5.28;;;;;;;;;;4950968;28;20415;-83
2024/01/08 01:39:44;;;;;;;8.95;4.95;;;;;;;;;;4959077;28;20501;-83
2024/01/08 01:42:16;;;;;;;10.68;5.13;;;;;;;;;;4944149;28;20505;-83
2024/01/08 01:44:42;;;;;;;7.70;4.70;;;;;;;;;;4983791;28;20560;-84
2024/01/08 01:47:09;;;;;;;10.73;5.43;;;;;;;;;;4973173;28;20426;-83
2024/01/08 01:49:35;;;;;;;10.98;5.50;;;;;;;;;;4942766;28;20493;-83
2024/01/08 01:52:01;;;;;;;8.63;5.18;;;;;;;;;;4957088;28;20514;-83
2024/01/08 01:54:29;;;;;;;8.07;4.85;;;;;;;;;;4958964;28;20435;-83
2024/01/08 01:57:02;;;;;;;8.73;5.20;;;;;;;;;;4957247;28;20943;-83
2024/01/08 01:59:34;;;;;;;9.73;5.38;;;;;;;;;;4957534;28;20406;-83
2024/01/08 02:02:14;;;;;;;10.10;5.82;;;;;;;;;;4971585;28;20410;-83
2024/01/08 02:04:46;;;;;;;10.17;5.90;;;;;;;;;;4963259;28;20404;-83
2024/01/08 02:07:19;;;;;;;9.10;5.30;;;;;;;;;;4961456;28;20406;-83
2024/01/08 02:09:56;;;;;;;9.75;5.55;;;;;;;;;;4935768;29;20418;-83
2024/01/08 02:12:22;;;;;;;8.90;5.63;;;;;;;;;;4932609;29;20468;-83
2024/01/08 02:15:06;;;;;;;10.98;5.78;;;;;;;;;;4942448;29;20469;-83
2024/01/08 02:17:39;;;;;;;9.95;5.60;;;;;;;;;;4948611;29;20919;-84
2024/01/08 02:20:14;;;;;;;9.17;5.40;;;;;;;;;;4920087;29;20430;-84
2024/01/08 02:22:55;;;;;;;9.40;5.80;;;;;;;;;;4934581;29;20417;-83
2024/01/08 02:28:47;;;;;;;8.63;5.45;;;;;;;;;;4945648;29;20457;-84
2024/01/08 02:31:29;;;;;;;10.05;5.78;;;;;;;;;;4935564;29;20505;-84
2024/01/08 02:33:55;;;;;;;9.95;5.68;;;;;;;;;;4933628;28;20959;-84
2024/01/08 02:36:27;;;;;;;12.27;6.25;;;;;;;;;;4952110;28;20426;-84
2024/01/08 02:38:54;;;;;;;12.85;5.43;;;;;;;;;;4973409;28;20457;-83
2024/01/08 02:41:22;;;;;;;9.90;5.72;;;;;;;;;;4991619;28;20399;-83
2024/01/08 02:43:54;;;;;;;9.68;6.00;;;;;;;;;;4996478;28;20457;-83
2024/01/08 02:46:26;;;;;;;13.67;6.77;;;;;;;;;;4996112;28;20402;-84
2024/01/08 02:48:58;;;;;;;10.93;6.32;;;;;;;;;;4995463;28;20402;-83
2024/01/08 02:51:28;;;;;;;12.45;6.53;;;;;;;;;;4994966;28;20415;-83
2024/01/08 02:53:56;;;;;;;11.77;6.80;;;;;;;;;;4986724;28;20422;-83
2024/01/08 02:56:25;;;;;;;11.25;6.35;;;;;;;;;;4997396;28;20416;-83
2024/01/08 02:58:58;;;;;;;10.55;6.63;;;;;;;;;;4997626;28;20399;-82
2024/01/08 03:01:24;;;;;;;12.02;7.20;;;;;;;;;;5013741;28;20458;-83
2024/01/08 03:04:03;;;;;;;11.60;6.55;;;;;;;;;;4982672;28;20534;-83
2024/01/08 03:06:33;;;;;;;11.52;7.35;;;;;;;;;;5013127;28;20403;-83
2024/01/08 03:09:04;;;;;;;12.10;6.80;;;;;;;;;;4992919;28;20422;-83
2024/01/08 03:11:36;;;;;;;12.48;7.40;;;;;;;;;;4997563;28;20419;-83
2024/01/08 03:14:03;;;;;;;10.70;6.57;;;;;;;;;;4997527;28;20430;-83
2024/01/08 03:16:34;;;;;;;12.23;7.63;;;;;;;;;;4996827;28;20403;-82
2024/01/08 03:19:06;;;;;;;12.85;6.80;;;;;;;;;;4996796;28;20402;-83
2024/01/08 03:21:33;;;;;;;12.25;7.10;;;;;;;;;;4996985;28;20906;-82
2024/01/08 03:24:13;;;;;;;12.48;6.82;;;;;;;;;;4988226;28;20424;-83
2024/01/08 03:26:49;;;;;;;10.90;6.50;;;;;;;;;;4997612;28;20474;-82
2024/01/08 03:29:15;;;;;;;11.68;6.93;;;;;;;;;;5012387;28;20407;-82
2024/01/08 03:31:45;;;;;;;11.33;6.97;;;;;;;;;;4997062;28;20469;-82
2024/01/08 03:34:11;;;;;;;11.23;6.82;;;;;;;;;;4996639;28;21016;-83
2024/01/08 03:37:07;;;;;;;11.50;6.97;;;;;;;;;;4997014;28;20435;-82
2024/01/08 03:39:33;;;;;;;11.02;6.85;;;;;;;;;;4995688;28;20401;-82
2024/01/08 03:42:02;;;;;;;14.60;6.93;;;;;;;;;;4996027;28;20424;-82
2024/01/08 03:44:29;;;;;;;11.57;7.22;;;;;;;;;;5012651;28;20415;-82
2024/01/08 03:47:01;;;;;;;11.20;7.13;;;;;;;;;;5013329;28;20442;-82
2024/01/08 03:49:27;;;;;;;12.73;7.07;;;;;;;;;;4986256;28;20395;-83
2024/01/08 03:51:56;;;;;;;12.35;6.97;;;;;;;;;;5000004;28;20423;-81
2024/01/08 03:54:22;;;;;;;11.13;6.65;;;;;;;;;;5000454;28;20442;-81
2024/01/08 03:56:51;;;;;;;12.05;7.00;;;;;;;;;;4997537;28;20457;-82
2024/01/08 03:59:22;;;;;;;12.48;6.90;;;;;;;;;;4998298;28;20414;-82
2024/01/08 04:01:52;;;;;;;12.45;7.28;;;;;;;;;;4985828;28;20410;-82
2024/01/08 04:04:47;;;;;;;12.52;7.18;;;;;;;;;;5000300;28;20751;-82
2024/01/08 04:07:23;;;;;;;11.40;6.53;;;;;;;;;;5001304;28;20473;-82
2024/01/08 04:09:50;;;;;;;10.80;7.03;;;;;;;;;;4983740;28;20422;-82
2024/01/08 04:12:22;;;;;;;10.60;6.40;;;;;;;;;;4999807;28;20481;-82
2024/01/08 04:14:55;;;;;;;10.52;7.15;;;;;;;;;;4999963;28;20427;-82
2024/01/08 04:17:21;;;;;;;11.00;6.40;;;;;;;;;;5000757;28;20879;-82
2024/01/08 04:19:47;;;;;;;10.00;6.53;;;;;;;;;;4998784;28;20775;-82
2024/01/08 04:22:17;;;;;;;10.52;5.90;;;;;;;;;;5000720;28;20434;-82
2024/01/08 04:24:43;;;;;;;11.43;6.28;;;;;;;;;;5016597;28;20446;-82
2024/01/08 04:27:09;;;;;;;10.60;6.13;;;;;;;;;;4999698;28;20429;-82
2024/01/08 04:29:38;;;;;;;11.88;6.10;;;;;;;;;;5015843;28;20506;-82
2024/01/08 04:32:07;;;;;;;10.07;6.03;;;;;;;;;;5000492;28;20410;-82
2024/01/08 04:34:33;;;;;;;10.80;6.13;;;;;;;;;;5000239;28;20427;-82
2024/01/08 04:37:02;;;;;;;9.70;5.90;;;;;;;;;;5000453;28;20478;-82
2024/01/08 04:39:28;;;;;;;8.75;5.47;;;;;;;;;;5015435;28;20883;-82
2024/01/08 04:41:55;;;;;;;10.90;6.07;;;;;;;;;;5015773;28;20423;-82
2024/01/08 04:44:21;;;;;;;10.65;5.90;;;;;;;;;;5016824;28;20736;-83
2024/01/08 04:46:59;;;;;;;10.38;5.78;;;;;;;;;;5000337;28;20920;-82
2024/01/08 04:49:25;;;;;;;9.77;5.93;;;;;;;;;;4984389;28;20914;-83
2024/01/08 04:51:51;;;;;;;9.83;5.70;;;;;;;;;;4999159;28;20515;-83
2024/01/08 04:54:17;;;;;;;8.68;5.30;;;;;;;;;;4983421;28;20502;-83
2024/01/08 04:56:44;;;;;;;7.72;4.97;;;;;;;;;;4999754;28;20767;-83
2024/01/08 04:59:10;;;;;;;7.87;5.10;;;;;;;;;;4997109;28;20497;-83
2024/01/08 05:01:37;;;;;;;9.10;5.30;;;;;;;;;;4999412;28;20490;-83
2024/01/08 05:04:04;;;;;;;8.35;4.97;;;;;;;;;;4999700;28;20407;-83
2024/01/08 05:06:33;;;;;;;9.33;4.87;;;;;;;;;;5032529;28;20525;-83
2024/01/08 05:09:00;;;;;;;8.48;4.45;;;;;;;;;;4999473;28;20435;-82
2024/01/08 05:11:29;;;;;;;6.97;4.07;;;;;;;;;;4991857;28;20872;-83
2024/01/08 05:13:58;;;;;;;6.15;4.20;;;;;;;;;;5015838;28;20891;-83
2024/01/08 05:16:27;;;;;;;6.88;3.78;;;;;;;;;;4985870;28;20457;-83
2024/01/08 05:18:55;;;;;;;6.15;3.70;;;;;;;;;;5008445;28;20403;-83
2024/01/08 05:21:21;;;;;;;8.48;4.00;;;;;;;;;;4990855;28;20415;-82
2024/01/08 05:23:50;;;;;;;7.18;3.80;;;;;;;;;;5001021;28;20434;-83
2024/01/08 05:26:16;;;;;;;7.20;4.03;;;;;;;;;;5015059;28;20419;-82
2024/01/08 05:28:43;;;;;;;6.90;3.90;;;;;;;;;;4982570;28;20400;-82
2024/01/08 05:31:11;;;;;;;6.32;3.33;;;;;;;;;;4998347;28;20410;-83
2024/01/08 05:33:37;;;;;;;6.10;3.58;;;;;;;;;;5011161;28;20443;-79
2024/01/08 05:36:03;;;;;;;6.43;3.80;;;;;;;;;;5015188;28;20458;-80
2024/01/08 05:38:29;;;;;;;6.60;3.70;;;;;;;;;;5009163;28;20506;-80
2024/01/08 05:40:58;;;;;;;7.40;3.65;;;;;;;;;;5014803;28;20403;-80
2024/01/08 05:43:24;;;;;;;6.97;3.63;;;;;;;;;;5015482;28;20402;-80
2024/01/08 05:45:50;;;;;;;7.03;3.83;;;;;;;;;;4999138;28;20403;-81
2024/01/08 05:48:16;;;;;;;6.72;3.60;;;;;;;;;;5014810;28;20415;-81
2024/01/08 05:50:42;;;;;;;6.93;3.75;;;;;;;;;;5014324;28;20498;-81
2024/01/08 05:53:08;;;;;;;6.55;3.40;;;;;;;;;;4998023;28;20903;-81
2024/01/08 05:55:35;;;;;;;6.57;3.53;;;;;;;;;;4980180;28;20471;-81
2024/01/08 05:58:01;;;;;;;5.45;3.33;;;;;;;;;;5014202;28;20461;-82
2024/01/08 06:00:27;;;;;;;7.03;3.50;;;;;;;;;;4998877;28;20407;-81
2024/01/08 06:02:53;;;;;;;6.97;3.65;;;;;;;;;;5014200;28;20403;-81
2024/01/08 06:05:19;;;;;;;8.07;3.67;;;;;;;;;;4999011;28;20410;-81
2024/01/08 06:07:47;;;;;;;8.20;3.88;;;;;;;;;;4998604;28;20435;-81
2024/01/08 06:10:13;;;;;;;6.82;3.88;;;;;;;;;;4981972;28;20418;-81
2024/01/08 06:12:39;;;;;;;7.05;4.10;;;;;;;;;;4998511;28;20399;-81
2024/01/08 06:15:06;;;;;;;6.10;3.70;;;;;;;;;;4997924;28;20434;-82
2024/01/08 06:17:32;;;;;;;7.70;4.43;;;;;;;;;;4982250;28;20895;-81
2024/01/08 06:19:58;;;;;;;9.63;4.18;;;;;;;;;;4997393;28;20872;-81
2024/01/08 06:22:27;;;;;;;7.32;4.43;;;;;;;;;;4998344;28;20406;-82
2024/01/08 06:24:56;;;;;;;8.93;4.30;;;;;;;;;;5013495;28;20511;-82
2024/01/08 06:27:24;;;;;;;7.82;4.10;;;;;;;;;;4982603;28;20427;-82
2024/01/08 06:29:51;;;;;;;10.38;4.68;;;;;;;;;;4998956;28;20502;-82
2024/01/08 06:32:25;;;;;;;7.72;4.50;;;;;;;;;;4999142;28;20421;-81
2024/01/08 06:34:54;;;;;;;9.35;4.40;;;;;;;;;;5013008;28;20506;-81
2024/01/08 06:37:20;;;;;;;10.13;4.55;;;;;;;;;;4998832;28;20482;-81
2024/01/08 06:39:49;;;;;;;9.38;4.63;;;;;;;;;;4998827;28;20403;-80
2024/01/08 06:42:15;;;;;;;10.60;4.60;;;;;;;;;;4991527;28;20572;-81
2024/01/08 06:44:45;;;;;;;10.10;4.78;;;;;;;;;;4998756;28;20498;-81
2024/01/08 06:47:11;;;;;;;8.60;4.70;;;;;;;;;;4982128;28;20494;-81
2024/01/08 06:49:37;;;;;;;8.23;4.70;;;;;;;;;;5014990;28;20445;-81
2024/01/08 06:52:03;;;;;;;9.18;4.85;;;;;;;;;;5014678;28;20423;-81
2024/01/08 06:54:30;;;;;;;8.30;4.40;;;;;;;;;;4998049;28;20509;-81
2024/01/08 06:56:56;;;;;;;8.70;4.53;;;;;;;;;;4998341;28;20453;-81
2024/01/08 06:59:22;;;;;;;7.97;4.50;;;;;;;;;;4997106;28;20446;-81
2024/01/08 07:01:51;;;;;;;9.07;4.88;;;;;;;;;;4986975;28;20432;-81
2024/01/08 07:04:21;;;;;;;12.00;4.78;;;;;;;;;;5016469;28;20408;-81
2024/01/08 07:06:50;;;;;;;8.33;4.50;;;;;;;;;;4996581;28;20579;-81
2024/01/08 07:09:19;;;;;;;9.27;4.80;;;;;;;;;;4982626;28;20759;-81
2024/01/08 07:11:45;;;;;;;9.80;4.55;;;;;;;;;;4981217;28;20747;-81
2024/01/08 07:14:11;;;;;;;9.18;4.85;;;;;;;;;;4996495;28;20411;-81
2024/01/08 07:16:55;;;;;;;9.63;4.90;;;;;;;;;;5013203;28;20958;-81
2024/01/08 07:19:21;;;;;;;10.57;4.88;;;;;;;;;;4996486;28;20410;-81
2024/01/08 07:21:48;;;;;;;8.73;4.57;;;;;;;;;;4994808;28;20426;-81
2024/01/08 07:24:14;;;;;;;9.20;4.97;;;;;;;;;;4996925;28;20410;-81
2024/01/08 07:26:40;;;;;;;9.90;4.80;;;;;;;;;;4996885;28;20410;-81
2024/01/08 07:29:08;;;;;;;11.23;5.18;;;;;;;;;;4995491;28;20422;-80
2024/01/08 07:31:53;;;;;;;8.10;4.68;;;;;;;;;;4995824;28;20895;-82
2024/01/08 07:34:19;;;;;;;10.20;4.70;;;;;;;;;;5012264;28;20400;-81
2024/01/08 07:36:46;;;;;;;9.27;4.68;;;;;;;;;;4995318;28;20533;-82
2024/01/08 07:39:14;;;;;;;9.70;4.35;;;;;;;;;;4997473;28;20407;-81
2024/01/08 07:41:41;;;;;;;9.05;4.90;;;;;;;;;;4996697;28;20461;-81
2024/01/08 07:44:07;;;;;;;10.75;4.38;;;;;;;;;;4995731;28;20422;-81
2024/01/08 07:46:34;;;;;;;7.72;4.10;;;;;;;;;;4994793;28;20395;-81
2024/01/08 07:49:04;;;;;;;9.20;4.35;;;;;;;;;;5012100;28;20411;-81
2024/01/08 07:51:32;;;;;;;8.95;4.40;;;;;;;;;;5002848;28;20423;-80
2024/01/08 07:54:00;;;;;;;8.63;4.63;;;;;;;;;;5011747;28;20411;-80
2024/01/08 07:56:26;;;;;;;8.65;4.40;;;;;;;;;;5012291;28;20470;-80
2024/01/08 07:58:55;;;;;;;7.70;3.90;;;;;;;;;;4995299;28;20413;-80
2024/01/08 08:01:22;;;;;;;7.93;4.10;;;;;;;;;;5028561;28;20926;-79
2024/01/08 08:03:48;;;;;;;9.88;4.40;;;;;;;;;;4995744;28;20403;-81
2024/01/08 08:06:14;;;;;;;7.95;4.40;;;;;;;;;;4980916;28;20962;-81
2024/01/08 08:08:40;;;;;;;9.50;4.55;;;;;;;;;;4997084;28;20787;-80
2024/01/08 08:11:06;;;;;;;9.07;4.28;;;;;;;;;;5013277;28;20411;-81
2024/01/08 08:13:32;;;;;;;10.57;4.70;;;;;;;;;;4995723;28;20461;-81
2024/01/08 08:15:59;;;;;;;11.77;4.70;;;;;;;;;;4980671;28;20779;-81
2024/01/08 08:18:27;;;;;;;7.47;4.13;;;;;;;;;;5009775;28;20451;-83
2024/01/08 08:20:57;;;;;;;10.80;4.97;;;;;;;;;;5006594;28;20752;-81
2024/01/08 08:23:24;;;;;;;10.88;4.50;;;;;;;;;;4980845;28;20441;-82
2024/01/08 08:25:50;;;;;;;9.13;4.50;;;;;;;;;;5012967;28;20922;-82
2024/01/08 08:28:16;;;;;;;7.70;4.18;;;;;;;;;;4996655;28;20411;-82
2024/01/08 08:30:42;;;;;;;8.77;4.07;;;;;;;;;;4992084;28;20434;-82
2024/01/08 08:33:08;;;;;;;11.13;4.90;;;;;;;;;;5014903;28;20794;-82
2024/01/08 08:35:36;;;;;;;8.95;4.72;;;;;;;;;;5000806;28;20514;-82
2024/01/08 08:38:02;;;;;;;7.43;4.10;;;;;;;;;;4999327;28;20406;-82
2024/01/08 08:40:31;;;;;;;9.63;4.40;;;;;;;;;;4999952;28;20756;-82
2024/01/08 08:42:57;;;;;;;10.33;4.60;;;;;;;;;;4987815;28;20497;-87
2024/01/08 08:45:23;;;;;;;8.25;3.80;;;;;;;;;;5019165;28;20460;-88
2024/01/08 08:47:50;;;;;;;7.93;4.13;;;;;;;;;;4984494;28;20411;-89
2024/01/08 08:50:16;;;;;;;8.43;4.18;;;;;;;;;;4999487;28;20462;-89
2024/01/08 08:52:45;;;;;;;8.63;4.00;;;;;;;;;;4998398;28;21013;-88
2024/01/08 08:55:12;;;;;;;7.55;3.88;;;;;;;;;;4994714;28;20458;-88
2024/01/08 08:57:38;;;;;;;9.38;3.65;;;;;;;;;;4999569;28;20883;-88
2024/01/08 09:00:06;;;;;;;9.80;4.07;;;;;;;;;;4999635;28;20410;-88
2024/01/08 09:02:32;;;;;;;7.93;4.10;;;;;;;;;;5010662;28;20435;-88
2024/01/08 09:04:59;;;;;;;9.13;4.03;;;;;;;;;;4996248;28;20467;-88
2024/01/08 09:07:26;;;;;;;7.38;3.60;;;;;;;;;;5020004;28;20425;-88
2024/01/08 09:09:53;;;;;;;7.30;3.60;;;;;;;;;;5013157;28;20422;-88
2024/01/08 09:12:19;;;;;;;7.53;4.22;;;;;;;;;;4991813;28;20407;-88
2024/01/08 09:14:45;;;;;;;8.85;3.80;;;;;;;;;;4995750;28;20494;-88
2024/01/08 09:17:11;;;;;;;8.40;4.20;;;;;;;;;;4976614;28;20814;-85
2024/01/08 09:19:40;;;;;;;7.55;3.70;;;;;;;;;;4999417;28;20482;-88
2024/01/08 09:22:12;;;;;;;8.88;3.92;;;;;;;;;;4997003;28;20488;-86
2024/01/08 09:24:38;;;;;;;7.13;3.28;;;;;;;;;;4980804;28;20893;-86
2024/01/08 09:27:04;;;;;;;7.45;3.28;;;;;;;;;;4986439;28;20486;-86
2024/01/08 09:29:33;;;;;;;8.07;3.75;;;;;;;;;;4999293;28;20412;-86
2024/01/08 09:31:59;;;;;;;8.20;3.53;;;;;;;;;;4994591;28;20424;-85
2024/01/08 09:34:25;;;;;;;8.77;3.30;;;;;;;;;;4972005;28;20483;-85
2024/01/08 09:36:51;;;;;;;5.55;3.03;;;;;;;;;;5028232;28;20406;-85
2024/01/08 09:39:17;;;;;;;6.10;2.93;;;;;;;;;;4996459;28;20424;-87
2024/01/08 09:41:48;;;;;;;8.07;2.90;;;;;;;;;;5000564;28;20478;-86
2024/01/08 09:44:15;;;;;;;5.00;3.03;;;;;;;;;;4995411;28;20932;-87
2024/01/08 09:46:50;;;;;;;6.03;3.22;;;;;;;;;;5005144;28;20410;-81
2024/01/08 09:53:55;;;;;;;;;;;;;;;;;;;;;
2024/01/08 10:02:59;;;;;;;6.22;3.65;;;;;;;;;;4964229;28;20368;-87
2024/01/08 10:09:26;;;;;;;5.40;2.75;;;;;;;;;;4972118;28;20387;-86
2024/01/08 10:11:52;;;;;;;4.90;2.53;;;;;;;;;;4970442;28;20856;-85
2024/01/08 10:14:19;;;;;;;5.90;2.88;;;;;;;;;;4955797;28;20457;-86
2024/01/08 10:17:01;;;;;;;5.80;2.88;;;;;;;;;;4953679;28;20412;-85
2024/01/08 10:23:06;;;;;;;5.63;2.90;;;;;;;;;;4968283;28;20909;-86
2024/01/08 10:25:33;;;;;;;5.55;3.10;;;;;;;;;;4958239;28;20444;-85
2024/01/08 10:31:28;;;;;;;4.87;2.60;;;;;;;;;;4952423;28;20433;-84
2024/01/08 10:34:16;;;;;;;4.80;2.55;;;;;;;;;;5008632;28;20490;-84
2024/01/08 10:36:53;;;;;;;4.93;2.60;;;;;;;;;;5013603;28;20469;-84
2024/01/08 10:42:59;;;;;;;8.10;2.60;;;;;;;;;;4982006;28;20445;-83
2024/01/08 10:45:31;;;;;;;4.80;2.63;;;;;;;;;;4962219;28;20487;-84
2024/01/08 10:48:22;;;;;;;5.15;2.20;;;;;;;;;;4974102;28;20414;-84
2024/01/08 10:51:15;;;;;;;4.70;2.30;;;;;;;;;;4952417;28;20490;-84
2024/01/08 10:54:05;;;;;;;4.55;2.78;;;;;;;;;;4954494;28;20414;-84
2024/01/08 10:56:41;;;;;;;5.78;3.20;;;;;;;;;;4954676;28;20464;-85
2024/01/08 10:59:23;;;;;;;5.80;2.70;;;;;;;;;;4971136;28;20522;-84
2024/01/08 11:01:57;;;;;;;4.78;2.85;;;;;;;;;;4982521;28;20452;-85
2024/01/08 11:04:31;;;;;;;5.85;2.88;;;;;;;;;;4958054;28;20406;-85
2024/01/08 11:07:13;;;;;;;5.03;2.70;;;;;;;;;;4963901;28;20895;-85
2024/01/08 11:09:55;;;;;;;6.22;3.20;;;;;;;;;;4959046;28;20409;-85
2024/01/08 11:12:32;;;;;;;7.57;2.70;;;;;;;;;;4997566;28;20435;-85
2024/01/08 11:15:14;;;;;;;5.05;3.03;;;;;;;;;;4997337;28;20431;-82
2024/01/08 11:18:04;;;;;;;7.00;3.25;;;;;;;;;;4978952;28;21370;-84
2024/01/08 11:20:40;;;;;;;5.17;2.80;;;;;;;;;;5013791;28;20410;-85
2024/01/08 11:23:41;;;;;;;5.40;2.80;;;0.40;99.90;;;;;;4986293;28;20403;-85
2024/01/08 11:26:31;;;;;;;6.77;3.00;;;;;;;;;;5013897;28;20411;-86
2024/01/08 11:29:16;;;;;;;6.35;3.25;;;;;;;;;;4997404;28;20411;-84
2024/01/08 11:32:18;;;;;;;6.80;3.40;;;;;;;;;;4954307;28;21005;-84
2024/01/08 11:35:13;;;;;;;6.50;3.40;;;;;;;;;;4932839;28;20487;-85
2024/01/08 11:38:16;;;;;;;5.78;3.38;;;;;;;;;;4943147;29;20406;-84
2024/01/08 11:40:44;;;;;;;4.88;2.85;;;;;;;;;;4916673;29;20478;-83
2024/01/08 11:43:47;;;;;;;5.95;3.13;;;;;;;;;;4931013;29;20429;-84
2024/01/08 11:46:21;;;;;;;8.02;3.58;;;;;;;;;;4934219;29;20420;-84
2024/01/08 11:49:05;;;;;;;5.90;3.30;;;;;;;;;;4873058;29;20410;-86
2024/01/08 11:52:04;;;;;;;5.23;2.97;;;;;;;;;;4945624;29;20467;-83
2024/01/08 11:54:31;;;;;;;6.32;3.22;;;;;;;;;;4919259;29;20433;-83
2024/01/08 11:56:57;;;;;;;5.33;2.87;;;;;;;;;;4942662;29;20978;-81
2024/01/08 11:59:33;;;;;;;6.63;3.10;;;;;;;;;;4918850;29;20566;-82
2024/01/08 12:02:14;;;;;;;4.38;2.88;;;;;;;;;;4938227;28;20415;-81
2024/01/08 12:05:05;;;;;;;4.95;2.97;;;;;;;;;;4957345;28;22204;-83
2024/01/08 12:07:37;;;;;;;5.40;2.80;;;;;;;;;;4955391;28;20427;-85
2024/01/08 12:10:08;;;;;;;6.70;3.08;;;;;;;;;;4950753;28;20404;-86
2024/01/08 12:12:37;;;;;;;4.57;2.60;;;;;;;;;;4928585;28;21080;-82
2024/01/08 12:15:04;;;;;;;4.72;2.80;;;;;;;;;;4956393;28;20432;-85
2024/01/08 12:17:30;;;;;;;5.20;2.60;;;;;;;;;;4955701;28;20919;-82
2024/01/08 12:19:58;;;;;;;5.47;2.70;;;;;;;;;;4967061;28;20432;-83
2024/01/08 12:22:24;;;;;;;5.03;2.80;;;;;;;;;;4978704;28;20778;-83
2024/01/08 12:24:52;;;;;;;6.93;3.05;;;;;;;;;;4941079;28;20438;-85
2024/01/08 12:27:19;;;;;;;6.28;2.80;;;;;;;;;;4940727;28;20438;-85
2024/01/08 12:29:46;;;;;;;5.93;3.08;;;;;;;;;;4941815;28;20412;-85
2024/01/08 12:32:28;;;;;;;5.57;2.88;;;;;;;;;;4949660;28;20405;-87
2024/01/08 12:34:55;;;;;;;5.63;3.20;;;;;;;;;;4950098;28;20449;-87
2024/01/08 12:37:32;;;;;;;4.85;2.95;;;;;;;;;;4981343;28;20423;-89
2024/01/08 12:39:58;;;;;;;4.93;2.90;;;;;;;;;;4995524;28;20518;-88
2024/01/08 12:42:35;;;;;;;4.85;2.90;;;;;;;;;;4986962;28;20430;-87
2024/01/08 12:45:01;;;;;;;5.82;3.40;;;;;;;;;;4988447;28;20912;-87
2024/01/08 12:47:32;;;;;;;5.85;3.30;;;;;;;;;;4997881;28;20455;-86
2024/01/08 12:49:59;;;;;;;6.18;2.90;;;;;;;;;;4993305;28;20436;-87
2024/01/08 12:52:25;;;;;;;5.07;3.03;;;;;;;;;;4983251;28;20434;-86
2024/01/08 12:55:03;;;;;;;5.22;3.00;;;;;;;;;;5005985;28;20846;-84
2024/01/08 12:57:38;;;;;;;5.18;3.40;;;;;;;;;;5017307;28;20411;-88
2024/01/08 13:00:13;;;;;;;5.28;3.03;;;;;;;;;;4993856;28;20407;-87
2024/01/08 13:02:45;;;;;;;5.22;3.30;;;;;;;;;;5022436;28;20935;-87
2024/01/08 13:05:19;;;;;;;4.13;2.75;;;;;;;;;;5000822;28;20931;-87
2024/01/08 13:08:04;;;;;;;5.00;2.93;;;;;;;;;;5013469;28;20459;-86
2024/01/08 13:10:33;;;;;;;5.40;2.70;;;;;;;;;;4980300;28;20436;-87
2024/01/08 13:13:18;;;;;;;7.07;3.20;;;;;;;;;;4996957;28;20459;-86
2024/01/08 13:15:58;;;;;;;7.50;3.17;;;;;;;;;;5011179;28;20442;-86
2024/01/08 13:18:40;;;;;;;6.00;3.30;;;;;;;;;;4990953;28;20529;-86
2024/01/08 13:21:24;;;;;;;5.53;3.28;;;;;;;;;;5000309;28;20408;-86
2024/01/08 13:23:52;;;;;;;5.72;3.20;;;;;;;;;;5014516;28;20419;-86
2024/01/08 13:26:50;;;;;;;6.03;3.05;;;;;;;;;;5016390;28;20411;-86
2024/01/08 13:29:28;;;;;;;6.30;3.35;;;;;;;;;;4935187;29;20449;-86
2024/01/08 13:32:28;;;;;;;8.45;3.40;;;;;;;;;;4938468;28;20427;-86
2024/01/08 13:35:12;;;;;;;6.50;3.33;;;0.20;99.90;;;;;;4936632;29;20444;-87
2024/01/08 13:37:39;;;;;;;7.00;3.25;;;;;;;;;;4918146;29;20431;-86
2024/01/08 13:40:13;;;;;;;5.93;3.10;;;;;;;;;;4921137;29;20566;-86
2024/01/08 13:42:44;;;;;;;5.15;3.22;;;;;;;;;;4936931;29;20506;-86
2024/01/08 13:45:44;;;;;;;6.60;3.30;;;;;;;;;;4937914;29;20496;-86
2024/01/08 13:48:28;;;;;;;7.57;3.47;;;;;;;;;;4880023;29;20414;-88
2024/01/08 14:16:26;;;;;;;8.10;3.88;;;;;;;;;;4950612;28;20432;-85
2024/01/08 14:19:32;;;;;;;7.25;3.35;;;;;;;;;;4920728;29;20395;-87
2024/01/08 14:22:34;;;;;;;;;;;;;;;;;;;;;
2024/01/08 14:25:43;;;;;;;7.97;3.53;;;;;;;;;;4912819;29;20769;-87
2024/01/08 14:53:05;;;;;;;9.10;4.22;;;;;;;;;;4858685;29;20410;-87
2024/01/08 15:00:08;;;;;;;6.88;3.78;;;-0.50;99.90;;;;;;4874991;29;20492;-86
2024/01/08 15:06:30;;;;;;;9.07;4.55;;;;;;;;;;4881353;29;20962;-87
2024/01/08 15:12:48;;;;;;;6.33;3.63;;;;;;;;;;4912636;29;20440;-87
2024/01/08 15:18:47;;;;;;;7.00;4.20;;;;;;;;;;4927598;29;20922;-86
2024/01/08 15:22:21;;;;;;;9.50;4.72;;;-0.50;99.90;;;;;;4930522;29;20992;-86
2024/01/08 15:24:58;;;;;;;7.82;4.20;;;;;;;;;;4935168;29;20427;-85
2024/01/08 15:30:50;;;;;;;11.43;4.40;;;;;;;;;;4985418;28;20495;-85
2024/01/08 15:33:16;;;;;;;7.00;4.33;;;;;;;;;;4974754;28;20497;-86
2024/01/08 15:35:43;;;;;;;7.15;4.80;;;;;;;;;;4977046;28;21036;-85
2024/01/08 15:38:09;;;;;;;8.38;5.10;;;;;;;;;;4991572;28;20437;-85
2024/01/08 15:40:37;;;;;;;9.55;5.80;;;;;;;;;;4978236;28;20409;-86
2024/01/08 15:43:04;;;;;;;8.30;4.55;;;;;;;;;;4979866;28;20463;-85
2024/01/08 15:45:31;;;;;;;10.48;5.00;;;;;;;;;;4981878;28;20416;-86
2024/01/08 15:47:57;;;;;;;8.23;5.10;;;;;;;;;;4981007;28;20955;-87
2024/01/08 15:50:26;;;;;;;8.65;4.47;;;;;;;;;;4964843;28;20409;-84
2024/01/08 15:52:52;;;;;;;8.00;4.50;;;;;;;;;;4981917;28;20487;-84
2024/01/08 15:55:18;;;;;;;7.50;4.30;;;;;;;;;;4981309;28;20578;-85
2024/01/08 15:57:46;;;;;;;8.40;4.57;;;;;;;;;;4981433;28;20496;-85
2024/01/08 16:00:13;;;;;;;7.63;4.53;;;;;;;;;;4998024;28;20498;-84
2024/01/08 16:02:40;;;;;;;8.45;4.65;;;;;;;;;;4979612;28;20444;-84
2024/01/08 16:05:12;;;;;;;7.63;4.50;;;;;;;;;;4982010;28;20413;-84
2024/01/08 16:07:38;;;;;;;9.13;4.82;;;;;;;;;;4997838;28;20412;-85
2024/01/08 16:10:12;;;;;;;9.03;5.03;;;;;;;;;;4981130;28;20416;-85
2024/01/08 16:16:34;;;;;;;7.75;5.00;;;;;;;;;;5010214;28;20769;-88
2024/01/08 16:19:09;;;;;;;9.07;5.43;;;;;;;;;;4990914;28;20420;-87
2024/01/08 16:22:00;;;;;;;8.43;4.85;;;;;;;;;;4993942;28;20562;-88
2024/01/08 16:38:02;;;;;;;9.13;4.55;;;;;;;;;;4929384;29;20466;-87
2024/01/08 16:40:41;;;;;;;8.55;3.95;;;;;;;;;;4916969;29;20558;-87
2024/01/08 16:43:28;;;;;;;7.35;3.92;;;;;;;;;;4861986;29;20504;-88
2024/01/08 16:46:00;;;;;;;9.60;4.50;;;;;;;;;;4861626;29;20420;-87
2024/01/08 16:48:44;;;;;;;6.38;4.00;;;;;;;;;;4846275;29;20468;-88
2024/01/08 16:51:23;;;;;;;6.75;4.28;;;;;;;;;;4847980;29;21020;-86
2024/01/08 16:53:49;;;;;;;6.30;3.78;;;;;;;;;;4849654;28;20424;-87
2024/01/08 16:59:47;;;;;;;8.35;4.60;;;;;;;;;;4937851;29;20497;-87
2024/01/08 17:05:37;;;;;;;6.78;3.80;;;;;;;;;;4918799;29;20404;-86
2024/01/08 17:08:15;;;;;;;7.30;4.10;;;;;;;;;;4914387;29;20560;-86
2024/01/08 17:11:20;;;;;;;8.77;5.10;;;-0.90;99.90;;;;;;4921693;29;20418;-86